GIA501 WIOO-WIII
Flight info
| Callsign | GIA501 |
|---|---|
| Flight time | 1h 7m |
| Altitude | 36000 |
| Route | MASRI W38 AMBOY |
| Aircraft | B738/M-SDE2E3FGHIRWXY/LB1 |
Departure
| Time | 2026-05-04 09:20 |
|---|---|
| Airport | Supadio International Airport (WIOO) |
Arrival
| Time | 2026-05-04 10:27 |
|---|---|
| Airport | Soekarno-Hatta International Airport (WIII) |
| Time | Latitude | Longitude | Altitude | Speed | Heading |
|---|---|---|---|---|---|
| 2026-05-04 08:43 | -0.14811 | 109.40431 | 31 ft | 0 kts | 67° |
| 2026-05-04 09:08 | -0.14812 | 109.40428 | 31 ft | 3 kts | 67° |
| 2026-05-04 09:09 | -0.14819 | 109.40412 | 31 ft | 4 kts | 59° |
| 2026-05-04 09:09 | -0.14835 | 109.40392 | 31 ft | 4 kts | 30° |
| 2026-05-04 09:09 | -0.14855 | 109.40388 | 31 ft | 0 kts | 339° |
| 2026-05-04 09:14 | -0.14718 | 109.40334 | 29 ft | 11 kts | 338° |
| 2026-05-04 09:14 | -0.14645 | 109.40305 | 29 ft | 11 kts | 338° |
| 2026-05-04 09:14 | -0.14574 | 109.40276 | 29 ft | 11 kts | 338° |
| 2026-05-04 09:14 | -0.14504 | 109.40248 | 30 ft | 11 kts | 338° |
| 2026-05-04 09:15 | -0.14437 | 109.40222 | 30 ft | 9 kts | 338° |
| 2026-05-04 09:15 | -0.14425 | 109.40210 | 30 ft | 0 kts | 294° |
| 2026-05-04 09:17 | -0.14231 | 109.40035 | 32 ft | 18 kts | 320° |
| 2026-05-04 09:18 | -0.14157 | 109.39994 | 32 ft | 3 kts | 54° |
| 2026-05-04 09:18 | -0.14170 | 109.40015 | 32 ft | 4 kts | 140° |
| 2026-05-04 09:18 | -0.14194 | 109.40026 | 32 ft | 0 kts | 158° |
| 2026-05-04 09:19 | -0.14195 | 109.40026 | 32 ft | 4 kts | 158° |
| 2026-05-04 09:19 | -0.14385 | 109.40103 | 30 ft | 58 kts | 158° |
| 2026-05-04 09:19 | -0.15037 | 109.40368 | 31 ft | 142 kts | 157° |
| 2026-05-04 09:19 | -0.16113 | 109.40787 | 403 ft | 180 kts | 160° |
| 2026-05-04 09:20 | -0.17375 | 109.41289 | 1025 ft | 214 kts | 158° |
| 2026-05-04 09:20 | -0.18911 | 109.41730 | 1323 ft | 247 kts | 177° |
| 2026-05-04 09:20 | -0.20746 | 109.41706 | 1539 ft | 282 kts | 184° |
| 2026-05-04 09:20 | -0.22747 | 109.41537 | 2236 ft | 286 kts | 186° |
| 2026-05-04 09:21 | -0.24696 | 109.41345 | 3433 ft | 276 kts | 187° |
| 2026-05-04 09:21 | -0.26570 | 109.41158 | 4642 ft | 269 kts | 187° |
| 2026-05-04 09:21 | -0.28452 | 109.40972 | 5514 ft | 274 kts | 187° |
| 2026-05-04 09:21 | -0.30343 | 109.40785 | 6336 ft | 279 kts | 187° |
| 2026-05-04 09:22 | -0.32312 | 109.40595 | 7184 ft | 283 kts | 187° |
| 2026-05-04 09:22 | -0.34287 | 109.40405 | 8007 ft | 287 kts | 187° |
| 2026-05-04 09:22 | -0.36266 | 109.40218 | 8794 ft | 291 kts | 187° |
| 2026-05-04 09:22 | -0.38319 | 109.40024 | 9593 ft | 295 kts | 186° |
| 2026-05-04 09:23 | -0.40351 | 109.39835 | 10299 ft | 301 kts | 186° |
| 2026-05-04 09:23 | -0.42513 | 109.39635 | 10560 ft | 324 kts | 186° |
| 2026-05-04 09:23 | -0.44801 | 109.39420 | 11062 ft | 336 kts | 186° |
| 2026-05-04 09:23 | -0.47144 | 109.39202 | 11777 ft | 339 kts | 185° |
| 2026-05-04 09:25 | -0.64059 | 109.37634 | 16520 ft | 364 kts | 184° |
| 2026-05-04 09:25 | -0.66606 | 109.37398 | 17049 ft | 370 kts | 184° |
| 2026-05-04 09:26 | -0.69187 | 109.37159 | 17636 ft | 374 kts | 184° |
| 2026-05-04 09:26 | -0.71744 | 109.36921 | 18242 ft | 376 kts | 184° |
| 2026-05-04 09:26 | -0.74364 | 109.36677 | 18815 ft | 380 kts | 184° |
| 2026-05-04 09:26 | -0.77008 | 109.36432 | 19363 ft | 383 kts | 184° |
| 2026-05-04 09:27 | -0.79679 | 109.36184 | 19890 ft | 387 kts | 184° |
| 2026-05-04 09:27 | -0.82369 | 109.35934 | 20407 ft | 390 kts | 184° |
| 2026-05-04 09:27 | -0.85083 | 109.35682 | 20911 ft | 393 kts | 184° |
| 2026-05-04 09:27 | -0.87823 | 109.35428 | 21404 ft | 397 kts | 183° |
| 2026-05-04 09:28 | -0.90581 | 109.35172 | 21877 ft | 400 kts | 183° |
| 2026-05-04 09:28 | -0.93362 | 109.34900 | 22333 ft | 403 kts | 184° |
| 2026-05-04 09:28 | -0.96162 | 109.34599 | 22778 ft | 406 kts | 184° |
| 2026-05-04 09:28 | -0.98982 | 109.34287 | 23211 ft | 409 kts | 185° |
| 2026-05-04 09:29 | -1.01820 | 109.33971 | 23632 ft | 412 kts | 184° |
| 2026-05-04 09:29 | -1.04678 | 109.33655 | 23823 ft | 414 kts | 184° |
| 2026-05-04 09:29 | -1.07540 | 109.33340 | 23827 ft | 413 kts | 184° |
| 2026-05-04 09:29 | -1.10394 | 109.33026 | 23840 ft | 413 kts | 184° |
| 2026-05-04 09:30 | -1.13253 | 109.32713 | 23843 ft | 415 kts | 184° |
| 2026-05-04 09:30 | -1.16124 | 109.32397 | 23833 ft | 416 kts | 184° |
| 2026-05-04 09:30 | -1.19005 | 109.32086 | 23839 ft | 417 kts | 184° |
| 2026-05-04 09:30 | -1.21893 | 109.31776 | 23836 ft | 417 kts | 184° |
| 2026-05-04 09:31 | -1.24778 | 109.31463 | 23835 ft | 417 kts | 184° |
| 2026-05-04 09:31 | -1.27665 | 109.31148 | 23831 ft | 417 kts | 184° |
| 2026-05-04 09:31 | -1.30539 | 109.30835 | 23834 ft | 415 kts | 184° |
| 2026-05-04 09:31 | -1.33409 | 109.30498 | 23836 ft | 414 kts | 188° |
| 2026-05-04 09:32 | -1.36152 | 109.29580 | 23857 ft | 422 kts | 206° |
| 2026-05-04 09:32 | -1.38740 | 109.28152 | 24206 ft | 426 kts | 208° |
| 2026-05-04 09:34 | -1.56984 | 109.17863 | 26884 ft | 439 kts | 207° |
| 2026-05-04 09:34 | -1.59662 | 109.16375 | 27246 ft | 441 kts | 207° |
| 2026-05-04 09:34 | -1.62356 | 109.14880 | 27573 ft | 444 kts | 207° |
| 2026-05-04 09:34 | -1.65067 | 109.13373 | 27897 ft | 446 kts | 207° |
| 2026-05-04 09:35 | -1.67784 | 109.11863 | 28213 ft | 448 kts | 207° |
| 2026-05-04 09:35 | -1.70514 | 109.10346 | 28534 ft | 450 kts | 207° |
| 2026-05-04 09:35 | -1.73257 | 109.08821 | 28858 ft | 452 kts | 207° |
| 2026-05-04 09:35 | -1.76016 | 109.07288 | 29166 ft | 454 kts | 207° |
| 2026-05-04 09:37 | -1.95568 | 108.96417 | 31083 ft | 466 kts | 207° |
| 2026-05-04 09:37 | -1.98411 | 108.94837 | 31305 ft | 468 kts | 207° |
| 2026-05-04 09:38 | -2.01258 | 108.93253 | 31544 ft | 469 kts | 207° |
| 2026-05-04 09:38 | -2.04109 | 108.91667 | 31858 ft | 468 kts | 207° |
| 2026-05-04 09:38 | -2.06949 | 108.90086 | 32200 ft | 466 kts | 207° |
| 2026-05-04 09:38 | -2.09781 | 108.88511 | 32531 ft | 466 kts | 207° |
| 2026-05-04 09:39 | -2.12610 | 108.86937 | 32827 ft | 465 kts | 207° |
| 2026-05-04 09:39 | -2.15439 | 108.85364 | 33138 ft | 465 kts | 207° |
| 2026-05-04 09:39 | -2.18259 | 108.83795 | 33447 ft | 464 kts | 207° |
| 2026-05-04 09:39 | -2.21078 | 108.82227 | 33736 ft | 464 kts | 207° |
| 2026-05-04 09:40 | -2.23895 | 108.80660 | 34056 ft | 463 kts | 207° |
| 2026-05-04 09:40 | -2.26705 | 108.79097 | 34347 ft | 462 kts | 207° |
| 2026-05-04 09:40 | -2.29513 | 108.77535 | 34648 ft | 461 kts | 208° |
| 2026-05-04 09:40 | -2.32313 | 108.75978 | 34970 ft | 459 kts | 207° |
| 2026-05-04 09:41 | -2.35099 | 108.74427 | 35281 ft | 458 kts | 207° |
| 2026-05-04 09:42 | -2.55009 | 108.64655 | 35841 ft | 452 kts | 194° |
| 2026-05-04 09:43 | -2.61058 | 108.62956 | 35840 ft | 451 kts | 194° |
| 2026-05-04 09:43 | -2.67085 | 108.61219 | 35844 ft | 450 kts | 195° |
| 2026-05-04 09:44 | -2.73095 | 108.59419 | 35845 ft | 450 kts | 195° |
| 2026-05-04 09:46 | -2.97080 | 108.52114 | 35844 ft | 452 kts | 195° |
| 2026-05-04 09:46 | -3.03104 | 108.50282 | 35858 ft | 453 kts | 195° |
| 2026-05-04 09:47 | -3.09137 | 108.48447 | 35850 ft | 453 kts | 195° |
| 2026-05-04 09:49 | -3.33333 | 108.41080 | 35858 ft | 455 kts | 195° |
| 2026-05-04 09:51 | -3.54503 | 108.34630 | 35857 ft | 454 kts | 195° |
| 2026-05-04 09:51 | -3.60550 | 108.32787 | 35862 ft | 454 kts | 195° |
| 2026-05-04 09:52 | -3.66594 | 108.30946 | 35869 ft | 454 kts | 195° |
| 2026-05-04 09:52 | -3.72629 | 108.29105 | 35858 ft | 453 kts | 195° |
| 2026-05-04 09:53 | -3.78667 | 108.27265 | 35858 ft | 453 kts | 195° |
| 2026-05-04 09:53 | -3.84666 | 108.25437 | 35856 ft | 453 kts | 195° |
| 2026-05-04 09:54 | -3.90694 | 108.23598 | 35864 ft | 453 kts | 195° |
| 2026-05-04 09:54 | -3.96719 | 108.21760 | 35866 ft | 452 kts | 195° |
| 2026-05-04 09:55 | -4.02740 | 108.19923 | 35864 ft | 452 kts | 195° |
| 2026-05-04 09:55 | -4.08757 | 108.18087 | 35862 ft | 451 kts | 195° |
| 2026-05-04 09:56 | -4.14733 | 108.16133 | 35852 ft | 453 kts | 203° |
| 2026-05-04 09:56 | -4.20339 | 108.13240 | 35864 ft | 455 kts | 208° |
| 2026-05-04 09:57 | -4.25866 | 108.10138 | 35873 ft | 454 kts | 207° |
| 2026-05-04 09:57 | -4.30499 | 108.07651 | 35863 ft | 455 kts | 206° |
| 2026-05-04 09:58 | -4.36101 | 108.04702 | 35869 ft | 455 kts | 206° |
| 2026-05-04 09:58 | -4.41706 | 108.01759 | 35851 ft | 454 kts | 206° |
| 2026-05-04 10:00 | -4.60754 | 107.91736 | 33116 ft | 430 kts | 206° |
| 2026-05-04 10:00 | -4.63392 | 107.90347 | 32702 ft | 427 kts | 206° |
| 2026-05-04 10:02 | -4.81355 | 107.80885 | 29991 ft | 408 kts | 206° |
| 2026-05-04 10:04 | -4.98570 | 107.71811 | 27249 ft | 391 kts | 206° |
| 2026-05-04 10:04 | -5.00966 | 107.70548 | 26864 ft | 388 kts | 206° |
| 2026-05-04 10:04 | -5.03353 | 107.69289 | 26475 ft | 386 kts | 206° |
| 2026-05-04 10:04 | -5.05726 | 107.68037 | 26094 ft | 384 kts | 206° |
| 2026-05-04 10:05 | -5.08085 | 107.66793 | 25712 ft | 381 kts | 206° |
| 2026-05-04 10:05 | -5.10426 | 107.65557 | 25330 ft | 379 kts | 206° |
| 2026-05-04 10:05 | -5.12756 | 107.64328 | 24956 ft | 377 kts | 206° |
| 2026-05-04 10:05 | -5.15072 | 107.63106 | 24583 ft | 375 kts | 206° |
| 2026-05-04 10:06 | -5.17373 | 107.61890 | 24209 ft | 373 kts | 207° |
| 2026-05-04 10:06 | -5.19395 | 107.60331 | 23818 ft | 375 kts | 228° |
| 2026-05-04 10:06 | -5.20807 | 107.58102 | 23392 ft | 377 kts | 246° |
| 2026-05-04 10:08 | -5.26504 | 107.43390 | 20694 ft | 378 kts | 248° |
| 2026-05-04 10:08 | -5.27464 | 107.40937 | 20245 ft | 377 kts | 248° |
| 2026-05-04 10:08 | -5.28421 | 107.38498 | 19785 ft | 373 kts | 248° |
| 2026-05-04 10:08 | -5.29363 | 107.36103 | 19332 ft | 364 kts | 248° |
| 2026-05-04 10:09 | -5.30282 | 107.33764 | 18904 ft | 356 kts | 248° |
| 2026-05-04 10:09 | -5.31182 | 107.31478 | 18481 ft | 349 kts | 248° |
| 2026-05-04 10:09 | -5.32064 | 107.29234 | 18072 ft | 342 kts | 248° |
| 2026-05-04 10:09 | -5.32930 | 107.27031 | 17673 ft | 337 kts | 248° |
| 2026-05-04 10:10 | -5.33785 | 107.24853 | 17275 ft | 333 kts | 248° |
| 2026-05-04 10:10 | -5.34630 | 107.22704 | 16892 ft | 330 kts | 248° |
| 2026-05-04 10:10 | -5.35471 | 107.20563 | 16496 ft | 331 kts | 248° |
| 2026-05-04 10:10 | -5.36314 | 107.18408 | 16109 ft | 333 kts | 248° |
| 2026-05-04 10:11 | -5.37157 | 107.16250 | 15702 ft | 331 kts | 248° |
| 2026-05-04 10:11 | -5.37994 | 107.14106 | 15299 ft | 328 kts | 248° |
| 2026-05-04 10:11 | -5.38824 | 107.11978 | 14918 ft | 329 kts | 248° |
| 2026-05-04 10:11 | -5.39664 | 107.09828 | 14529 ft | 332 kts | 248° |
| 2026-05-04 10:12 | -5.40496 | 107.07694 | 14124 ft | 332 kts | 248° |
| 2026-05-04 10:12 | -5.41338 | 107.05537 | 13718 ft | 332 kts | 248° |
| 2026-05-04 10:12 | -5.42179 | 107.03382 | 13328 ft | 331 kts | 248° |
| 2026-05-04 10:12 | -5.43017 | 107.01236 | 12959 ft | 329 kts | 248° |
| 2026-05-04 10:13 | -5.43838 | 106.99132 | 12883 ft | 318 kts | 248° |
| 2026-05-04 10:13 | -5.44626 | 106.97112 | 12864 ft | 305 kts | 248° |
| 2026-05-04 10:13 | -5.45381 | 106.95174 | 12858 ft | 292 kts | 248° |
| 2026-05-04 10:13 | -5.46115 | 106.93294 | 12588 ft | 290 kts | 248° |
| 2026-05-04 10:14 | -5.47092 | 106.91522 | 12091 ft | 294 kts | 226° |
| 2026-05-04 10:14 | -5.48781 | 106.90378 | 11610 ft | 297 kts | 199° |
| 2026-05-04 10:16 | -5.63735 | 106.89905 | 8156 ft | 309 kts | 180° |
| 2026-05-04 10:16 | -5.65872 | 106.89882 | 7645 ft | 305 kts | 179° |
| 2026-05-04 10:16 | -5.67973 | 106.89860 | 7153 ft | 300 kts | 180° |
| 2026-05-04 10:16 | -5.70049 | 106.89831 | 6653 ft | 296 kts | 180° |
| 2026-05-04 10:17 | -5.72068 | 106.89801 | 6149 ft | 292 kts | 180° |
| 2026-05-04 10:17 | -5.74087 | 106.89762 | 5650 ft | 288 kts | 180° |
| 2026-05-04 10:19 | -5.87703 | 106.89473 | 2167 ft | 270 kts | 180° |
| 2026-05-04 10:19 | -5.89533 | 106.89432 | 2034 ft | 256 kts | 180° |
| 2026-05-04 10:19 | -5.91260 | 106.89385 | 1981 ft | 241 kts | 180° |
| 2026-05-04 10:19 | -5.92874 | 106.89352 | 1966 ft | 224 kts | 180° |
| 2026-05-04 10:20 | -5.94387 | 106.89326 | 1971 ft | 216 kts | 180° |
| 2026-05-04 10:20 | -5.95844 | 106.89241 | 1958 ft | 206 kts | 194° |
| 2026-05-04 10:20 | -5.97002 | 106.88528 | 2008 ft | 192 kts | 221° |
| 2026-05-04 10:20 | -5.98010 | 106.87643 | 2008 ft | 190 kts | 220° |
| 2026-05-04 10:21 | -5.99012 | 106.86775 | 2006 ft | 190 kts | 220° |
| 2026-05-04 10:21 | -5.99990 | 106.85925 | 1983 ft | 180 kts | 220° |
| 2026-05-04 10:21 | -6.00913 | 106.85124 | 2005 ft | 173 kts | 219° |
| 2026-05-04 10:21 | -6.01811 | 106.84344 | 2006 ft | 169 kts | 219° |
| 2026-05-04 10:22 | -6.03498 | 106.82880 | 1965 ft | 153 kts | 220° |
| 2026-05-04 10:22 | -6.04285 | 106.82140 | 2034 ft | 155 kts | 232° |
| 2026-05-04 10:22 | -6.04700 | 106.81170 | 2027 ft | 149 kts | 249° |
| 2026-05-04 10:23 | -6.05083 | 106.80219 | 2030 ft | 147 kts | 245° |
| 2026-05-04 10:23 | -6.05490 | 106.79275 | 2009 ft | 146 kts | 244° |
| 2026-05-04 10:25 | -6.08108 | 106.72721 | 1242 ft | 138 kts | 244° |
| 2026-05-04 10:25 | -6.08461 | 106.71831 | 1057 ft | 136 kts | 244° |
| 2026-05-04 10:25 | -6.08812 | 106.70946 | 881 ft | 138 kts | 245° |
| 2026-05-04 10:25 | -6.09166 | 106.70053 | 696 ft | 137 kts | 244° |
| 2026-05-04 10:26 | -6.09518 | 106.69162 | 514 ft | 137 kts | 245° |
| 2026-05-04 10:26 | -6.09870 | 106.68271 | 356 ft | 137 kts | 245° |
| 2026-05-04 10:26 | -6.10218 | 106.67379 | 178 ft | 138 kts | 246° |
| 2026-05-04 10:26 | -6.10573 | 106.66488 | 37 ft | 133 kts | 251° |
| 2026-05-04 10:27 | -6.10869 | 106.65737 | 36 ft | 94 kts | 248° |
| 2026-05-04 10:27 | -6.11072 | 106.65239 | 34 ft | 63 kts | 249° |
| 2026-05-04 10:27 | -6.11206 | 106.64905 | 35 ft | 37 kts | 238° |
| 2026-05-04 10:27 | -6.11352 | 106.64750 | 35 ft | 21 kts | 218° |
| 2026-05-04 10:28 | -6.11454 | 106.64706 | 37 ft | 9 kts | 171° |
| 2026-05-04 10:28 | -6.11494 | 106.64719 | 36 ft | 1 kts | 159° |
| 2026-05-04 10:28 | -6.11498 | 106.64720 | 37 ft | 1 kts | 156° |
| 2026-05-04 10:28 | -6.11502 | 106.64722 | 37 ft | 1 kts | 156° |
| 2026-05-04 10:29 | -6.11512 | 106.64727 | 37 ft | 4 kts | 156° |
| 2026-05-04 10:29 | -6.11537 | 106.64786 | 37 ft | 16 kts | 76° |
| 2026-05-04 10:29 | -6.11484 | 106.64924 | 37 ft | 24 kts | 68° |
| 2026-05-04 10:29 | -6.11420 | 106.65089 | 37 ft | 26 kts | 68° |
| 2026-05-04 10:30 | -6.11354 | 106.65250 | 37 ft | 24 kts | 68° |
| 2026-05-04 10:30 | -6.11295 | 106.65401 | 36 ft | 23 kts | 68° |
| 2026-05-04 10:30 | -6.11237 | 106.65542 | 36 ft | 16 kts | 69° |
| 2026-05-04 10:30 | -6.11234 | 106.65602 | 36 ft | 0 kts | 128° |
| 2026-05-04 10:31 | -6.11236 | 106.65604 | 36 ft | 1 kts | 130° |
| 2026-05-04 10:32 | -6.11418 | 106.65788 | 35 ft | 17 kts | 98° |
| 2026-05-04 10:33 | -6.11473 | 106.65872 | 36 ft | 14 kts | 153° |
| 2026-05-04 10:33 | -6.11560 | 106.65916 | 36 ft | 14 kts | 153° |
| 2026-05-04 10:33 | -6.11623 | 106.65947 | 36 ft | 9 kts | 156° |
| 2026-05-04 10:33 | -6.11679 | 106.65969 | 36 ft | 8 kts | 159° |
| 2026-05-04 10:34 | -6.11733 | 106.65990 | 37 ft | 8 kts | 159° |
| 2026-05-04 10:34 | -6.11783 | 106.66015 | 36 ft | 8 kts | 142° |
| 2026-05-04 10:34 | -6.11796 | 106.66064 | 37 ft | 8 kts | 77° |
| 2026-05-04 10:34 | -6.11784 | 106.66097 | 37 ft | 0 kts | 68° |
| 2026-05-04 10:35 | -6.11783 | 106.66098 | 37 ft | 1 kts | 68° |
| 2026-05-04 10:35 | -6.11776 | 106.66117 | 37 ft | 5 kts | 68° |
| 2026-05-04 10:35 | -6.11755 | 106.66168 | 35 ft | 10 kts | 68° |
| 2026-05-04 10:35 | -6.11734 | 106.66226 | 37 ft | 5 kts | 82° |
| 2026-05-04 10:36 | -6.11753 | 106.66252 | 37 ft | 5 kts | 143° |
| 2026-05-04 10:36 | -6.11784 | 106.66269 | 37 ft | 6 kts | 152° |
| 2026-05-04 10:36 | -6.11823 | 106.66291 | 37 ft | 5 kts | 147° |
| 2026-05-04 10:36 | -6.11829 | 106.66296 | 34 ft | 0 kts | 136° |
| 2026-05-04 10:37 | -6.11832 | 106.66300 | 37 ft | 0 kts | 125° |